Time;durP1;ratioP1;P1;durP2;ratioP2;P2;SDS_P1;SDS_P2;PMS_P1;PMS_P2;Temp;Humidity;BMP_temperature;BMP_pressure;BME280_temperature;BME280_humidity;BME280_pressure;Samples;Min_cycle;Max_cycle;Signal;HPM_P1;HPM_P2
2022/08/06 00:01:55;;;;;;;23.45;13.93;;;;;20.30;96710.00;;;;8344321;28;20242;-63
2022/08/06 00:06:00;;;;;;;19.98;13.98;;;;;20.20;96717.00;;;;8346999;28;20225;-64
2022/08/06 00:10:05;;;;;;;18.45;13.00;;;;;20.20;96735.00;;;;8347102;28;20630;-64
2022/08/06 00:14:09;;;;;;;17.48;10.98;;;;;20.10;96743.00;;;;8344291;28;20225;-63
2022/08/06 00:18:15;;;;;;;18.58;10.65;;;;;20.10;96736.00;;;;8341265;28;20252;-63
2022/08/06 00:22:21;;;;;;;16.30;10.48;;;;;19.90;96722.00;;;;8346037;28;20252;-63
2022/08/06 00:26:31;;;;;;;19.05;9.23;;;;;19.90;96716.00;;;;8343860;28;20677;-64
2022/08/06 00:30:34;;;;;;;18.35;9.88;;;;;19.80;96726.00;;;;8340775;28;20216;-63
2022/08/06 00:34:37;;;;;;;17.48;9.18;;;;;19.70;96726.00;;;;8342175;28;20258;-64
2022/08/06 00:38:43;;;;;;;17.92;8.63;;;;;19.50;96750.00;;;;8340851;28;20233;-65
2022/08/06 00:42:46;;;;;;;12.63;8.05;;;;;19.30;96748.00;;;;8340284;28;20239;-64
2022/08/06 00:46:52;;;;;;;14.30;7.97;;;;;19.20;96758.00;;;;8346331;28;20308;-64
2022/08/06 00:50:55;;;;;;;8.23;6.03;;;;;19.00;96734.00;;;;8338231;28;20868;-64
2022/08/06 00:54:59;;;;;;;9.23;5.90;;;;;18.80;96756.00;;;;8331123;28;20225;-64
2022/08/06 00:59:04;;;;;;;8.23;5.68;;;;;18.60;96770.00;;;;8338230;28;20232;-64
2022/08/06 01:03:16;;;;;;;6.85;4.95;;;;;18.20;96755.00;;;;8339849;28;20244;-64
2022/08/06 01:07:39;;;;;;;8.05;4.75;;;;;18.00;96763.00;;;;8332513;28;20228;-64
2022/08/06 01:11:56;;;;;;;8.23;5.53;;;;;17.90;96781.00;;;;8338425;28;20221;-64
2022/08/06 01:16:12;;;;;;;8.88;6.00;;;;;17.90;96787.00;;;;8334763;28;20225;-64
2022/08/06 01:20:52;;;;;;;11.90;6.60;;;;;17.90;96791.00;;;;8336622;28;20226;-65
2022/08/06 01:25:36;;;;;;;19.02;5.28;;;;;17.70;96791.00;;;;8332342;28;20255;-66
2022/08/06 01:29:56;;;;;;;12.98;5.15;;;;;17.60;96799.00;;;;8348009;28;20847;-63
2022/08/06 01:34:04;;;;;;;11.90;5.30;;;;;17.60;96785.00;;;;8335343;28;20221;-63
2022/08/06 01:38:14;;;;;;;8.73;4.60;;;;;17.50;96794.00;;;;8341692;28;20283;-63
2022/08/06 01:42:21;;;;;;;8.82;4.43;;;;;17.40;96794.00;;;;8342702;28;20217;-62
2022/08/06 01:46:44;;;;;;;8.18;4.85;;;;;17.30;96787.00;;;;8336561;28;20780;-62
2022/08/06 01:50:51;;;;;;;9.00;5.10;;;;;17.20;96781.00;;;;8327426;28;20237;-62
2022/08/06 01:54:58;;;;;;;7.28;4.40;;;;;17.10;96795.00;;;;8327232;28;20231;-62
2022/08/06 01:59:04;;;;;;;10.82;5.13;;;;;17.00;96792.00;;;;8341567;28;20229;-63
2022/08/06 02:03:19;;;;;;;8.57;4.85;;;;;17.00;96789.00;;;;8328714;28;20216;-63
2022/08/06 02:07:28;;;;;;;7.60;4.63;;;;;16.90;96788.00;;;;8341068;28;20724;-64
2022/08/06 02:11:56;;;;;;;8.40;6.00;;;;;16.70;96782.00;;;;8332100;28;20304;-63
2022/08/06 02:16:10;;;;;;;8.45;5.10;;;;;16.60;96778.00;;;;8330024;28;20250;-64
2022/08/06 02:20:17;;;;;;;9.27;5.45;;;;;16.50;96792.00;;;;8335226;28;20575;-64
2022/08/06 02:24:40;;;;;;;8.80;4.80;;;;;16.40;96794.00;;;;8315339;28;20240;-65
2022/08/06 02:28:44;;;;;;;11.82;6.65;;;;;16.40;96790.00;;;;8329949;28;20227;-66
2022/08/06 02:32:52;;;;;;;13.75;6.25;;;;;16.40;96793.00;;;;8338031;28;20231;-65
2022/08/06 02:37:04;;;;;;;15.63;6.07;;;;;16.40;96780.00;;;;8337967;28;20238;-66
2022/08/06 02:41:16;;;;;;;8.55;5.85;;;;;16.30;96771.00;;;;8331297;28;20685;-66
2022/08/06 02:45:26;;;;;;;10.70;6.13;;;;;16.30;96785.00;;;;8336954;28;20241;-66
2022/08/06 02:49:41;;;;;;;10.18;5.60;;;;;16.30;96797.00;;;;8331448;28;20243;-66
2022/08/06 02:53:58;;;;;;;13.77;6.03;;;;;16.30;96795.00;;;;8337792;28;20298;-66
2022/08/06 02:58:11;;;;;;;8.43;5.32;;;;;16.30;96822.00;;;;8336501;28;20215;-67
2022/08/06 03:02:22;;;;;;;9.10;5.40;;;;;16.40;96807.00;;;;8344084;22;20222;-65
2022/08/06 03:06:31;;;;;;;9.35;5.65;;;;;16.30;96809.00;;;;8301439;28;20233;-66
2022/08/06 03:10:37;;;;;;;7.95;5.15;;;;;16.30;96809.00;;;;8301937;28;20577;-67
2022/08/06 03:14:43;;;;;;;9.95;4.70;;;;;16.30;96815.00;;;;8300820;28;20224;-66
2022/08/06 03:19:07;;;;;;;8.63;5.15;;;;;16.30;96834.00;;;;8305815;28;20224;-66
2022/08/06 03:23:32;;;;;;;9.50;5.28;;;;;16.30;96842.00;;;;8279024;28;20228;-66
2022/08/06 03:27:38;;;;;;;9.05;5.93;;;;;16.20;96830.00;;;;8301539;28;20621;-66
2022/08/06 03:31:46;;;;;;;10.63;6.50;;;;;16.20;96824.00;;;;8300487;28;20315;-66
2022/08/06 03:36:02;;;;;;;7.95;5.82;;;;;16.20;96834.00;;;;8308006;28;20317;-66
2022/08/06 03:40:08;;;;;;;10.00;6.30;;;;;16.20;96840.00;;;;8300233;28;20676;-66
2022/08/06 03:44:15;;;;;;;10.93;6.10;;;;;16.20;96833.00;;;;8305800;28;20675;-67
2022/08/06 03:48:24;;;;;;;12.68;7.18;;;;;16.20;96855.00;;;;8305759;28;20284;-66
2022/08/06 03:52:43;;;;;;;10.35;6.95;;;;;16.20;96839.00;;;;8310825;28;20289;-67
2022/08/06 03:56:53;;;;;;;13.52;8.20;;;;;16.20;96856.00;;;;8310991;28;20395;-66
2022/08/06 04:01:05;;;;;;;14.95;8.27;;;;;16.20;96860.00;;;;8300166;28;20286;-66
2022/08/06 04:05:11;;;;;;;13.55;9.07;;;;;16.20;96861.00;;;;8275522;28;20284;-68
2022/08/06 04:09:16;;;;;;;15.18;8.45;;;;;16.30;96867.00;;;;8277822;28;20694;-68
2022/08/06 04:13:37;;;;;;;14.50;8.57;;;;;16.30;96874.00;;;;8277183;28;20230;-68
2022/08/06 04:18:02;;;;;;;13.35;8.63;;;;;16.20;96863.00;;;;8279351;28;20299;-68
2022/08/06 04:22:07;;;;;;;16.63;9.35;;;;;16.20;96860.00;;;;8286020;28;20229;-67
2022/08/06 04:26:31;;;;;;;17.85;9.57;;;;;16.20;96870.00;;;;8281750;28;20749;-68
2022/08/06 04:30:37;;;;;;;15.38;9.45;;;;;16.30;96886.00;;;;8287143;28;20237;-68
2022/08/06 04:34:52;;;;;;;14.63;9.48;;;;;16.30;96874.00;;;;8283798;28;20229;-69
2022/08/06 04:39:16;;;;;;;17.35;11.27;;;;;16.30;96881.00;;;;8280032;28;20252;-69
2022/08/06 04:43:27;;;;;;;15.35;11.10;;;;;16.40;96872.00;;;;8285280;28;20249;-68
2022/08/06 04:47:51;;;;;;;19.95;12.07;;;;;16.40;96891.00;;;;8286567;28;20227;-69
2022/08/06 04:51:55;;;;;;;22.02;13.52;;;;;16.40;96893.00;;;;8287406;28;20236;-67
2022/08/06 04:56:18;;;;;;;21.00;11.82;;;;;16.50;96898.00;;;;8284835;28;20224;-67
2022/08/06 05:00:23;;;;;;;20.80;13.10;;;;;16.50;96901.00;;;;8287811;28;20237;-67
2022/08/06 05:04:36;;;;;;;19.65;12.90;;;;;16.60;96905.00;;;;8343469;28;20235;-67
2022/08/06 05:08:44;;;;;;;25.15;13.38;;;;;16.60;96902.00;;;;8338730;28;20337;-68
2022/08/06 05:12:57;;;;;;;22.33;14.07;;;;;16.70;96914.00;;;;8344099;28;20239;-67
2022/08/06 05:17:02;;;;;;;22.52;14.00;;;;;16.70;96921.00;;;;8346627;28;20231;-68
2022/08/06 05:21:13;;;;;;;22.95;14.73;;;;;16.70;96930.00;;;;8344215;28;20244;-68
2022/08/06 05:25:22;;;;;;;25.20;15.13;;;;;16.80;96931.00;;;;8342463;28;20231;-67
2022/08/06 05:29:30;;;;;;;22.10;13.50;;;;;16.80;96946.00;;;;8338360;28;20240;-67
2022/08/06 05:33:38;;;;;;;26.30;16.20;;;;;16.80;96946.00;;;;8344649;28;20237;-66
2022/08/06 05:37:44;;;;;;;28.13;15.27;;;;;16.90;96947.00;;;;8345517;28;20337;-67
2022/08/06 05:42:08;;;;;;;25.35;16.15;;;;;16.90;96946.00;;;;8347180;28;20230;-67
2022/08/06 05:46:14;;;;;;;26.90;16.60;;;;;16.90;96941.00;;;;8337094;28;20243;-69
2022/08/06 05:50:23;;;;;;;27.02;17.67;;;;;17.00;96944.00;;;;8342946;28;20286;-69
2022/08/06 05:54:34;;;;;;;26.35;16.73;;;;;17.10;96960.00;;;;8343293;28;20285;-69
2022/08/06 05:58:46;;;;;;;25.35;16.20;;;;;17.30;96962.00;;;;8343329;28;20232;-69
2022/08/06 06:02:59;;;;;;;23.50;14.90;;;;;17.40;96974.00;;;;8343182;28;20247;-68
2022/08/06 06:07:05;;;;;;;25.70;15.32;;;;;17.40;96972.00;;;;8345846;28;20224;-68
2022/08/06 06:11:12;;;;;;;21.85;14.88;;;;;17.40;96975.00;;;;8343468;28;20285;-68
2022/08/06 06:15:19;;;;;;;22.70;15.88;;;;;17.60;96982.00;;;;8345343;28;20290;-64
2022/08/06 06:19:48;;;;;;;23.58;16.20;;;;;17.70;96997.00;;;;8344280;28;20220;-68
2022/08/06 06:24:01;;;;;;;26.52;16.48;;;;;17.80;97005.00;;;;8348234;28;20227;-69
2022/08/06 06:28:20;;;;;;;25.52;18.05;;;;;17.70;97003.00;;;;8340711;28;20304;-70
2022/08/06 06:32:41;;;;;;;22.13;15.80;;;;;17.80;97007.00;;;;8344112;28;20231;-70
2022/08/06 06:36:54;;;;;;;18.33;13.93;;;;;17.70;97018.00;;;;8340581;28;20556;-71
2022/08/06 06:41:08;;;;;;;24.45;17.40;;;;;17.60;97009.00;;;;8345475;28;20223;-71
2022/08/06 06:45:31;;;;;;;19.70;14.10;;;;;17.50;97014.00;;;;8347408;28;20736;-71
2022/08/06 06:49:59;;;;;;;22.95;13.63;;;;;17.50;97015.00;;;;8344806;28;20266;-71
2022/08/06 06:54:13;;;;;;;19.73;12.90;;;;;17.70;97023.00;;;;8343264;28;20223;-68
2022/08/06 06:58:32;;;;;;;16.92;12.45;;;;;17.90;97027.00;;;;8338391;28;20224;-69
2022/08/06 07:02:40;;;;;;;13.93;10.77;;;;;17.90;97029.00;;;;8337750;28;20737;-69
2022/08/06 07:06:51;;;;;;;16.40;8.48;;;;;18.10;97043.00;;;;8346439;28;20311;-69
2022/08/06 07:11:02;;;;;;;13.85;8.05;;;;;18.00;97040.00;;;;8341980;28;20243;-69
2022/08/06 07:15:09;;;;;;;9.93;5.70;;;;;17.90;97042.00;;;;8346342;28;20278;-68
2022/08/06 07:19:21;;;;;;;5.70;4.60;;;;;17.80;97051.00;;;;8347428;28;20277;-69
2022/08/06 07:23:26;;;;;;;5.68;4.70;;;;;17.70;97048.00;;;;8340962;28;20228;-69
2022/08/06 07:27:51;;;;;;;3.50;3.28;;;;;17.50;97050.00;;;;8347122;28;20216;-69
2022/08/06 07:31:59;;;;;;;3.47;3.15;;;;;17.80;97057.00;;;;8352590;28;21384;-68
2022/08/06 07:36:03;;;;;;;4.45;3.00;;;;;18.20;97047.00;;;;8340645;28;20314;-68
2022/08/06 07:40:16;;;;;;;4.53;3.53;;;;;18.30;97050.00;;;;8341295;28;20242;-69
2022/08/06 07:44:22;;;;;;;5.63;2.85;;;;;18.30;97063.00;;;;8343728;28;20271;-69
2022/08/06 07:48:33;;;;;;;3.58;2.80;;;;;18.30;97067.00;;;;8355553;28;20232;-69
2022/08/06 07:52:40;;;;;;;3.92;2.33;;;;;18.20;97064.00;;;;8352181;28;20625;-69
2022/08/06 07:56:46;;;;;;;2.72;2.53;;;;;18.30;97064.00;;;;8344497;28;20221;-69
2022/08/06 08:01:02;;;;;;;3.00;2.70;;;;;18.40;97069.00;;;;8353219;28;20339;-68
2022/08/06 08:09:43;;;;;;;4.50;2.33;;;;;19.20;97079.00;;;;8342738;28;20232;-68
2022/08/06 08:14:08;;;;;;;2.65;2.45;;;;;19.40;97082.00;;;;8339415;28;20735;-68
2022/08/06 08:18:14;;;;;;;5.93;2.40;;;;;19.50;97089.00;;;;8347781;28;20240;-68
2022/08/06 08:22:20;;;;;;;3.85;2.15;;;;;19.60;97086.00;;;;8344098;28;20238;-70
2022/08/06 08:26:26;;;;;;;5.05;2.63;;;;;19.50;97096.00;;;;8344789;28;20248;-69
2022/08/06 08:30:51;;;;;;;3.92;2.45;;;;;19.50;97097.00;;;;8330349;28;20240;-68
2022/08/06 08:34:55;;;;;;;3.58;2.88;;;;;19.50;97103.00;;;;8346532;28;20283;-69
2022/08/06 08:39:01;;;;;;;3.13;2.67;;;;;19.90;97105.00;;;;8348288;28;20274;-69
2022/08/06 08:43:11;;;;;;;5.18;2.90;;;;;20.00;97104.00;;;;8347031;28;20243;-68
2022/08/06 08:47:23;;;;;;;7.05;2.53;;;;;19.90;97117.00;;;;8346989;28;20229;-68
2022/08/06 08:51:47;;;;;;;3.15;2.53;;;;;20.10;97116.00;;;;8340348;28;20289;-69
2022/08/06 08:55:52;;;;;;;5.80;3.13;;;;;20.40;97118.00;;;;8348989;28;20263;-68
2022/08/06 09:00:15;;;;;;;4.75;3.58;;;;;20.60;97110.00;;;;8341360;28;20282;-68
2022/08/06 09:04:32;;;;;;;4.30;3.90;;;;;20.60;97106.00;;;;8348130;28;20249;-69
2022/08/06 09:08:37;;;;;;;4.68;3.42;;;;;20.90;97116.00;;;;8358258;28;20311;-69
2022/08/06 09:13:00;;;;;;;5.55;3.70;;;;;20.90;97118.00;;;;8347314;28;20228;-69
2022/08/06 09:17:04;;;;;;;7.78;3.95;;;;;21.60;97116.00;;;;8344390;28;20227;-68
2022/08/06 09:21:29;;;;;;;4.30;3.63;;;;;22.10;97118.00;;;;8348911;28;21860;-68
2022/08/06 09:25:38;;;;;;;7.95;5.53;;;;;22.30;97112.00;;;;8358266;28;20250;-69
2022/08/06 09:29:56;;;;;;;4.10;3.50;;;;;22.50;97109.00;;;;8347376;28;20898;-69
2022/08/06 09:34:14;;;;;;;4.68;4.15;;;;;23.50;97108.00;;;;8348524;28;20886;-68
2022/08/06 09:38:48;;;;;;;5.40;3.70;;;;;23.90;97125.00;;;;8345373;28;20282;-68
2022/08/06 09:42:52;;;;;;;4.75;4.35;;;;;23.90;97120.00;;;;8344482;28;20732;-68
2022/08/06 09:46:57;;;;;;;4.43;3.88;;;;;23.80;97135.00;;;;8341807;28;20225;-69
2022/08/06 09:51:01;;;;;;;4.47;4.00;;;;;24.10;97126.00;;;;8348734;28;20233;-69
2022/08/06 09:55:07;;;;;;;5.03;4.03;;;;;23.80;97132.00;;;;8341488;28;20232;-69
2022/08/06 09:59:19;;;;;;;3.95;3.70;;;;;23.60;97142.00;;;;8343950;28;20231;-68
2022/08/06 10:03:22;;;;;;;7.60;4.25;;;;;23.30;97142.00;;;;8343665;28;20216;-68
2022/08/06 10:07:45;;;;;;;5.13;4.30;;;;;23.60;97136.00;;;;8359083;28;20729;-70
2022/08/06 10:11:57;;;;;;;3.90;3.58;;;;;23.40;97130.00;;;;8344144;28;20307;-68
2022/08/06 10:16:15;;;;;;;3.67;3.38;;;;;23.30;97133.00;;;;8343720;28;20259;-68
2022/08/06 10:20:19;;;;;;;4.20;3.65;;;;;23.20;97143.00;;;;8345580;28;20220;-70
2022/08/06 10:24:22;;;;;;;4.05;3.67;;;;;23.60;97131.00;;;;8344758;28;20812;-69
2022/08/06 10:28:47;;;;;;;4.10;3.70;;;;;24.10;97136.00;;;;8346016;28;20224;-70
2022/08/06 10:32:55;;;;;;;10.05;4.63;;;;;24.30;97129.00;;;;8339456;28;20589;-70
2022/08/06 10:37:03;;;;;;;8.23;3.85;;;;;23.90;97129.00;;;;8345399;28;20644;-69
2022/08/06 10:41:14;;;;;;;5.20;3.90;;;;;23.30;97134.00;;;;8338798;28;20740;-70
2022/08/06 10:45:40;;;;;;;5.63;4.18;;;;;23.60;97133.00;;;;8345542;28;20224;-69
2022/08/06 10:49:54;;;;;;;3.60;3.40;;;;;24.40;97130.00;;;;8342897;28;20231;-69
2022/08/06 10:54:18;;;;;;;5.68;4.07;;;;;24.30;97136.00;;;;8342857;28;20223;-70
2022/08/06 10:58:27;;;;;;;4.35;3.95;;;;;24.10;97138.00;;;;8340935;28;22164;-69
2022/08/06 11:02:38;;;;;;;3.80;3.45;;;;;24.90;97131.00;;;;8340983;28;20301;-70
2022/08/06 11:07:34;;;;;;;4.70;3.33;;;;;25.70;97130.00;;;;8341331;28;20243;-70
2022/08/06 11:12:14;;;;;;;4.68;3.60;;;;;26.00;97138.00;;;;8337940;28;20259;-70
2022/08/06 11:16:30;;;;;;;4.13;3.25;;;;;25.60;97133.00;;;;8342484;28;20720;-69
2022/08/06 11:20:43;;;;;;;2.80;2.60;;;;;25.50;97121.00;;;;8345726;28;20327;-70
2022/08/06 11:24:56;;;;;;;2.63;2.42;;;;;25.80;97114.00;;;;8343551;28;20242;-70
2022/08/06 11:29:01;;;;;;;2.90;2.67;;;;;25.70;97114.00;;;;8343050;28;20224;-70
2022/08/06 11:33:04;;;;;;;2.30;2.20;;;;;25.30;97120.00;;;;8340797;28;20231;-71
2022/08/06 11:37:11;;;;;;;2.83;2.40;;;;;25.30;97112.00;;;;8338412;28;20311;-70
2022/08/06 11:41:45;;;;;;;2.22;2.13;;;;;26.30;97109.00;;;;8337745;28;20228;-70
2022/08/06 11:46:25;;;;;;;2.25;2.15;;;;;27.20;97123.00;;;;8339582;28;20331;-71
2022/08/06 11:50:38;;;;;;;5.82;2.53;;;;;27.40;97118.00;;;;8327694;28;20228;-71
2022/08/06 11:55:02;;;;;;;3.13;2.83;;;;;26.50;97118.00;;;;8337778;28;20228;-71
2022/08/06 11:59:15;;;;;;;2.22;2.03;;;;;26.90;97108.00;;;;8338322;28;20783;-71
2022/08/06 12:03:38;;;;;;;3.22;2.33;;;;;27.00;97109.00;;;;8323709;28;20968;-70
2022/08/06 12:08:13;;;;;;;2.05;1.90;;;;;27.60;97105.00;;;;8303045;28;21877;-70
2022/08/06 12:12:39;;;;;;;2.10;1.70;;;;;28.60;97110.00;;;;8301995;28;20279;-71
2022/08/06 12:16:47;;;;;;;2.88;1.90;;;;;28.10;97107.00;;;;8309513;28;20308;-70
2022/08/06 12:20:56;;;;;;;2.35;2.20;;;;;27.20;97110.00;;;;8303330;28;20510;-69
2022/08/06 12:25:05;;;;;;;3.47;1.65;;;;;27.40;97094.00;;;;8307479;28;20280;-71
2022/08/06 12:29:15;;;;;;;6.10;2.20;;;;;27.60;97095.00;;;;8311103;28;20539;-70
2022/08/06 12:33:25;;;;;;;5.28;2.08;;;;;27.90;97090.00;;;;8312484;28;20228;-69
2022/08/06 12:37:36;;;;;;;1.98;1.80;;;;;27.80;97096.00;;;;8318814;28;20225;-69
2022/08/06 12:41:52;;;;;;;1.92;1.75;;;;;26.90;97087.00;;;;8313733;28;20236;-69
2022/08/06 12:45:59;;;;;;;2.25;1.92;;;;;26.70;97084.00;;;;8312631;28;20746;-69
2022/08/06 12:50:19;;;;;;;3.30;1.98;;;;;26.80;97075.00;;;;8314136;28;20578;-69
2022/08/06 12:54:32;;;;;;;2.13;1.60;;;;;26.90;97083.00;;;;8311119;28;20233;-70
2022/08/06 12:58:38;;;;;;;1.85;1.75;;;;;27.00;97081.00;;;;8315611;28;20229;-70
2022/08/06 13:02:49;;;;;;;1.52;1.50;;;;;26.70;97072.00;;;;8331075;28;20255;-70
2022/08/06 13:06:52;;;;;;;1.60;1.50;;;;;26.40;97076.00;;;;8344951;28;20251;-69
2022/08/06 13:10:59;;;;;;;1.80;1.70;;;;;26.30;97076.00;;;;8340441;28;20681;-70
2022/08/06 13:15:12;;;;;;;1.73;1.63;;;;;26.10;97087.00;;;;8345017;28;20229;-71
2022/08/06 13:19:26;;;;;;;2.05;1.80;;;;;26.10;97073.00;;;;8347063;28;20220;-70
2022/08/06 13:23:34;;;;;;;2.72;1.52;;;;;26.40;97064.00;;;;8353270;28;20228;-71
2022/08/06 13:27:39;;;;;;;2.13;1.67;;;;;26.70;97058.00;;;;8337113;28;20225;-70
2022/08/06 13:32:03;;;;;;;1.60;1.42;;;;;26.90;97052.00;;;;8340623;28;20566;-73
2022/08/06 13:36:30;;;;;;;1.90;1.80;;;;;27.60;97054.00;;;;8339185;28;20576;-74
2022/08/06 13:40:44;;;;;;;2.00;1.55;;;;;27.70;97051.00;;;;8343620;28;20239;-70
2022/08/06 13:44:53;;;;;;;1.70;1.60;;;;;27.90;97043.00;;;;8347016;28;20231;-70
2022/08/06 13:48:59;;;;;;;1.63;1.52;;;;;29.00;97043.00;;;;8338097;28;20229;-69
2022/08/06 13:53:06;;;;;;;1.70;1.60;;;;;29.70;97041.00;;;;8338998;28;20731;-70
2022/08/06 13:57:16;;;;;;;1.90;1.50;;;;;29.60;97042.00;;;;8345748;28;20216;-74
2022/08/06 14:01:19;;;;;;;1.73;1.40;;;;;29.90;97040.00;;;;8343525;28;20236;-74
2022/08/06 14:05:22;;;;;;;2.10;1.55;;;;;30.00;97032.00;;;;8340434;28;20232;-76
2022/08/06 14:09:30;;;;;;;2.83;1.63;;;;;30.20;97029.00;;;;8350860;28;20227;-75
2022/08/06 14:13:53;;;;;;;1.40;1.40;;;;;30.20;97034.00;;;;8348189;28;20236;-74
2022/08/06 14:17:57;;;;;;;1.50;1.40;;;;;29.70;97041.00;;;;8341061;28;20826;-70
2022/08/06 14:22:00;;;;;;;1.40;1.40;;;;;29.30;97036.00;;;;8340173;28;20328;-71
2022/08/06 14:26:08;;;;;;;2.15;1.60;;;;;29.00;97038.00;;;;8335169;28;20228;-71
2022/08/06 14:30:15;;;;;;;1.52;1.42;;;;;29.20;97033.00;;;;8341450;28;20259;-68
2022/08/06 14:34:32;;;;;;;3.30;1.40;;;;;29.70;97033.00;;;;8334586;28;20236;-67
2022/08/06 14:38:40;;;;;;;2.72;1.45;;;;;30.30;97035.00;;;;8344631;28;20244;-67
2022/08/06 14:47:08;;;;;;;2.58;1.60;;;;;31.60;97026.00;;;;8336870;28;20226;-66
2022/08/06 14:51:22;;;;;;;2.25;1.70;;;;;31.80;97034.00;;;;8342184;28;20267;-66
2022/08/06 14:55:25;;;;;;;1.33;1.25;;;;;31.80;97033.00;;;;8344990;28;20216;-66
2022/08/06 14:59:34;;;;;;;4.32;1.38;;;;;31.60;97036.00;;;;8342261;28;20226;-66
2022/08/06 15:03:51;;;;;;;3.33;1.83;;;;;30.80;97038.00;;;;8313120;28;20233;-72
2022/08/06 15:07:54;;;;;;;3.30;1.50;;;;;30.70;97031.00;;;;8342963;28;20247;-71
2022/08/06 15:11:59;;;;;;;3.88;1.40;;;;;31.10;97026.00;;;;8340440;28;20936;-71
2022/08/06 15:16:08;;;;;;;2.13;1.38;;;;;30.90;97033.00;;;;8338245;28;21000;-71
2022/08/06 15:20:32;;;;;;;1.35;1.20;;;;;30.30;97023.00;;;;8338652;28;20581;-72
2022/08/06 15:24:36;;;;;;;1.70;1.52;;;;;30.70;97028.00;;;;8348463;28;20255;-72
2022/08/06 15:28:44;;;;;;;2.17;1.50;;;;;30.70;97022.00;;;;8327894;28;20331;-71
2022/08/06 15:32:53;;;;;;;1.67;1.30;;;;;30.90;97024.00;;;;8333304;28;20234;-71
2022/08/06 15:36:59;;;;;;;1.23;1.20;;;;;30.80;97016.00;;;;8335735;28;20221;-73
2022/08/06 15:41:06;;;;;;;1.77;1.40;;;;;30.40;97012.00;;;;8342339;28;20323;-72
2022/08/06 15:45:10;;;;;;;3.13;1.27;;;;;29.90;97016.00;;;;8328182;28;20229;-72
2022/08/06 15:49:36;;;;;;;1.33;1.30;;;;;30.00;97014.00;;;;8331027;28;20224;-72
2022/08/06 15:54:00;;;;;;;1.50;1.40;;;;;30.20;97015.00;;;;8343872;28;20303;-72
2022/08/06 15:58:03;;;;;;;1.60;1.20;;;;;29.90;97012.00;;;;8346449;28;20387;-71
2022/08/06 16:02:12;;;;;;;1.40;1.40;;;;;29.60;97013.00;;;;8341857;28;20232;-72
2022/08/06 16:06:35;;;;;;;1.60;1.50;;;;;29.70;97009.00;;;;8348019;28;20259;-72
2022/08/06 16:10:42;;;;;;;1.25;1.25;;;;;30.10;97006.00;;;;8349527;28;20634;-72
2022/08/06 16:14:49;;;;;;;1.30;1.30;;;;;30.40;97009.00;;;;8349581;28;20577;-72
2022/08/06 16:19:00;;;;;;;4.47;1.63;;;;;30.20;97008.00;;;;8352131;28;20232;-72
2022/08/06 16:23:07;;;;;;;3.40;1.33;;;;;29.90;97010.00;;;;8352710;28;20220;-71
2022/08/06 16:27:30;;;;;;;1.20;1.20;;;;;29.60;97010.00;;;;8347666;28;20578;-71
2022/08/06 16:31:42;;;;;;;1.40;1.30;;;;;29.40;97012.00;;;;8354381;28;20676;-71
2022/08/06 16:35:55;;;;;;;3.75;1.52;;;;;29.60;97009.00;;;;8348122;28;20282;-71
2022/08/06 16:40:01;;;;;;;1.23;1.17;;;;;29.80;97011.00;;;;8354353;28;20224;-71
2022/08/06 16:44:07;;;;;;;1.23;1.23;;;;;30.40;97015.00;;;;8353877;28;20240;-71
2022/08/06 16:48:10;;;;;;;3.88;1.30;;;;;30.90;97004.00;;;;8346437;28;20311;-71
2022/08/06 16:52:29;;;;;;;1.20;1.20;;;;;31.40;97009.00;;;;8353651;28;20236;-71
2022/08/06 16:56:48;;;;;;;3.00;1.40;;;;;31.70;97016.00;;;;8345369;28;20739;-71
2022/08/06 17:00:51;;;;;;;1.30;1.20;;;;;31.90;97012.00;;;;8345477;28;20232;-71
2022/08/06 17:05:17;;;;;;;1.40;1.30;;;;;31.80;97010.00;;;;8343182;28;20620;-71
2022/08/06 17:09:23;;;;;;;1.35;1.25;;;;;31.60;97011.00;;;;8351866;28;21055;-71
2022/08/06 17:13:29;;;;;;;1.60;1.50;;;;;31.90;97014.00;;;;8351545;28;20755;-71
2022/08/06 17:17:52;;;;;;;2.15;1.60;;;;;32.50;97009.00;;;;8351378;28;20224;-71
2022/08/06 17:21:57;;;;;;;1.60;1.30;;;;;32.60;97013.00;;;;8351677;28;20303;-71
2022/08/06 17:26:02;;;;;;;1.50;1.40;;;;;32.60;97007.00;;;;8351375;28;20224;-71
2022/08/06 17:30:13;;;;;;;3.55;1.42;;;;;31.70;97007.00;;;;8351030;28;20217;-71
2022/08/06 17:34:18;;;;;;;1.88;1.30;;;;;30.60;97009.00;;;;8344116;28;20695;-71
2022/08/06 17:38:21;;;;;;;1.42;1.33;;;;;30.10;97007.00;;;;8350221;28;20225;-71
2022/08/06 17:42:25;;;;;;;2.55;1.45;;;;;30.50;96998.00;;;;8349858;28;20236;-71
2022/08/06 17:46:31;;;;;;;2.70;1.75;;;;;30.60;97005.00;;;;8351565;28;20316;-71
2022/08/06 17:50:40;;;;;;;3.10;1.65;;;;;30.10;97001.00;;;;8351116;28;20231;-71
2022/08/06 17:54:46;;;;;;;1.67;1.52;;;;;29.50;96999.00;;;;8345574;28;20294;-71
2022/08/06 17:58:59;;;;;;;2.00;1.58;;;;;28.40;97008.00;;;;8351608;28;20590;-71
2022/08/06 18:03:24;;;;;;;1.30;1.30;;;;;27.40;97004.00;;;;8348491;28;20270;-71
2022/08/06 18:07:47;;;;;;;1.88;1.58;;;;;26.50;97014.00;;;;8344989;28;20231;-70
2022/08/06 18:12:11;;;;;;;3.95;1.40;;;;;25.80;97013.00;;;;8330783;28;20224;-70
2022/08/06 18:16:15;;;;;;;1.75;1.50;;;;;25.40;97015.00;;;;8341560;28;20251;-70
2022/08/06 18:20:22;;;;;;;1.60;1.50;;;;;25.00;97015.00;;;;8346986;28;20686;-71
2022/08/06 18:24:40;;;;;;;2.58;1.60;;;;;24.60;97018.00;;;;8331868;28;21048;-66
2022/08/06 18:28:52;;;;;;;2.35;1.40;;;;;24.30;97018.00;;;;8337911;28;20446;-67
2022/08/06 18:32:55;;;;;;;4.03;1.80;;;;;24.00;97026.00;;;;8343518;28;20235;-67
2022/08/06 18:37:04;;;;;;;1.45;1.42;;;;;23.80;97031.00;;;;8343687;28;20855;-67
2022/08/06 18:41:22;;;;;;;1.70;1.60;;;;;23.50;97037.00;;;;8359043;28;20217;-67
2022/08/06 18:45:29;;;;;;;1.63;1.52;;;;;23.30;97043.00;;;;8345942;28;20307;-67
2022/08/06 18:49:38;;;;;;;1.88;1.73;;;;;23.10;97046.00;;;;8348441;28;20236;-67
2022/08/06 18:53:55;;;;;;;1.98;1.80;;;;;23.00;97045.00;;;;8345420;28;20263;-68
2022/08/06 18:58:06;;;;;;;2.88;1.70;;;;;22.80;97063.00;;;;8336895;28;20668;-69
2022/08/06 19:02:16;;;;;;;1.83;1.73;;;;;22.60;97061.00;;;;8350549;28;20613;-71
2022/08/06 19:06:28;;;;;;;2.45;1.52;;;;;22.40;97065.00;;;;8339231;28;20618;-71
2022/08/06 19:10:33;;;;;;;1.73;1.50;;;;;22.30;97063.00;;;;8336150;28;20229;-71
2022/08/06 19:14:39;;;;;;;1.63;1.55;;;;;22.10;97070.00;;;;8347637;28;20232;-71
2022/08/06 19:18:50;;;;;;;2.65;1.60;;;;;22.00;97061.00;;;;8342688;28;20225;-71
2022/08/06 19:23:00;;;;;;;1.95;1.80;;;;;21.80;97058.00;;;;8341169;28;20225;-71
2022/08/06 19:27:11;;;;;;;3.22;2.00;;;;;21.70;97056.00;;;;8341064;28;20225;-71
2022/08/06 19:31:17;;;;;;;1.83;1.73;;;;;21.60;97064.00;;;;8340237;28;20564;-71
2022/08/06 19:35:27;;;;;;;3.42;1.70;;;;;21.40;97071.00;;;;8335667;28;20915;-70
2022/08/06 19:40:44;;;;;;;2.95;1.67;;;;;21.30;97072.00;;;;8338404;28;20224;-71
2022/08/06 19:44:22;;;;;;;2.22;1.88;;;;;21.10;97079.00;;;;8341537;28;20677;-71
2022/08/06 19:48:41;;;;;;;2.17;1.70;;;;;21.00;97076.00;;;;8348058;28;20231;-70
2022/08/06 19:52:48;;;;;;;2.95;1.85;;;;;20.80;97069.00;;;;8354910;28;20501;-71
2022/08/06 19:56:52;;;;;;;1.98;1.88;;;;;20.70;97069.00;;;;8347080;28;20235;-71
2022/08/06 20:01:06;;;;;;;2.97;1.95;;;;;20.60;97074.00;;;;8351674;28;21038;-71
2022/08/06 20:05:30;;;;;;;2.10;1.98;;;;;20.50;97081.00;;;;8349284;28;20277;-71
2022/08/06 20:09:53;;;;;;;3.50;2.05;;;;;20.40;97068.00;;;;8348663;28;20216;-71
2022/08/06 20:14:02;;;;;;;1.90;1.80;;;;;20.30;97073.00;;;;8344547;28;20271;-70
2022/08/06 20:18:07;;;;;;;2.38;2.25;;;;;20.10;97077.00;;;;8343557;28;20227;-71
2022/08/06 20:22:12;;;;;;;2.55;2.33;;;;;20.00;97075.00;;;;8347586;28;20221;-71
2022/08/06 20:26:17;;;;;;;2.22;2.13;;;;;19.90;97070.00;;;;8341742;28;20231;-71
2022/08/06 20:30:38;;;;;;;2.70;2.50;;;;;19.80;97071.00;;;;8352053;28;20247;-71
2022/08/06 20:34:58;;;;;;;2.10;2.00;;;;;19.70;97074.00;;;;8345643;28;20221;-71
2022/08/06 20:39:02;;;;;;;3.53;2.25;;;;;19.60;97064.00;;;;8344205;28;20255;-71
2022/08/06 20:43:06;;;;;;;2.83;2.63;;;;;19.60;97071.00;;;;8347385;28;20324;-71
2022/08/06 20:47:16;;;;;;;2.90;2.60;;;;;19.50;97070.00;;;;8348182;28;20221;-71
2022/08/06 20:51:41;;;;;;;3.05;2.60;;;;;19.40;97074.00;;;;8344805;28;20236;-71
2022/08/06 20:55:45;;;;;;;5.43;2.40;;;;;19.30;97068.00;;;;8344126;28;20320;-71
2022/08/06 20:59:49;;;;;;;2.35;2.25;;;;;19.30;97059.00;;;;8342280;28;20224;-71
2022/08/06 21:03:53;;;;;;;4.10;2.85;;;;;19.30;97065.00;;;;8343851;28;20236;-71